Villanueva de Castellon, Spain
Current Conditions -  °F | °C
As of 6:00 AM on Saturday 20 Dec 2014 (Local Time) from LEVC Reporting Station
Moderate Fog Moderate Fog  
Wind Chill: 46°   Ceiling: 100
Heat Index: 46°   Visibility: 0.18mi
Dew Point: 46°   Wind: 3mph
Humidity: 100%   Direction: 300°WNW
Pressure: 30.42"   Gusts: NA
Location:  39.08°N, 0.51°W
Report Text: LEVC 200500Z 30003KT 0300 R30/0600N FG VV001 08/08 Q1030 NOSIG
Loading
Personal Weather Stations






























Interactive Weather Map New forecast layout! Learn more

10-Day Weather Forecast

Advertisements
Track Severe Weather on mobile